createdAt,value
2022-09-12T00:00:31.940Z,16.07
2022-09-12T00:05:54.430Z,16.52
2022-09-12T00:10:56.843Z,16.70
2022-09-12T00:15:59.199Z,16.90
2022-09-12T00:21:02.575Z,15.64
2022-09-12T00:26:06.288Z,15.27
2022-09-12T00:31:10.180Z,16.21
2022-09-12T00:37:04.128Z,16.53
2022-09-12T00:42:06.497Z,16.73
2022-09-12T00:47:11.731Z,16.80
2022-09-12T00:52:18.620Z,16.89
2022-09-12T00:57:23.676Z,16.48
2022-09-12T01:02:26.494Z,14.86
2022-09-12T01:07:29.142Z,15.88
2022-09-12T01:12:33.553Z,16.47
2022-09-12T01:17:38.833Z,16.65
2022-09-12T01:22:54.331Z,16.95
2022-09-12T01:27:56.588Z,16.91
2022-09-12T01:33:01.843Z,15.17
2022-09-12T01:38:10.334Z,15.40
2022-09-12T01:43:21.244Z,16.30
2022-09-12T01:48:26.440Z,16.62
2022-09-12T01:53:34.070Z,15.65
2022-09-12T01:58:40.360Z,14.85
2022-09-12T02:03:45.648Z,15.91
2022-09-12T02:08:52.280Z,16.36
2022-09-12T02:13:58.941Z,16.55
2022-09-12T02:19:07.815Z,16.37
2022-09-12T02:24:13.234Z,14.64
2022-09-12T02:29:15.733Z,15.52
2022-09-12T02:34:20.970Z,16.20
2022-09-12T02:39:23.389Z,16.53
2022-09-12T02:44:27.611Z,15.32
2022-09-12T02:49:30.032Z,14.35
2022-09-12T02:54:32.473Z,15.81
2022-09-12T02:59:34.774Z,16.57
2022-09-12T03:04:38.065Z,16.19
2022-09-12T03:09:44.212Z,14.61
2022-09-12T03:14:46.640Z,15.90
2022-09-12T03:19:57.259Z,16.57
2022-09-12T03:25:05.614Z,16.57
2022-09-12T03:30:08.248Z,15.27
2022-09-12T03:35:10.816Z,16.32
2022-09-12T03:40:13.282Z,16.93
2022-09-12T03:45:16.515Z,15.95
2022-09-12T03:50:18.891Z,14.96
2022-09-12T03:55:21.202Z,16.34
2022-09-12T04:00:23.732Z,17.00
2022-09-12T04:05:26.552Z,15.57
2022-09-12T04:10:29.090Z,14.80
2022-09-12T04:15:31.406Z,16.28
2022-09-12T04:20:33.724Z,16.74
2022-09-12T04:25:36.103Z,14.85
2022-09-12T04:30:38.682Z,15.02
2022-09-12T04:35:41.591Z,16.32
2022-09-12T04:47:23.040Z,14.95
2022-09-12T04:52:25.361Z,15.13
2022-09-12T04:57:27.875Z,16.64
2022-09-12T05:02:30.349Z,16.39
2022-09-12T05:07:32.803Z,14.69
2022-09-12T05:12:36.601Z,15.94
2022-09-12T05:17:38.966Z,16.90
2022-09-12T05:22:41.312Z,16.66
2022-09-12T05:27:46.417Z,14.94
2022-09-12T05:32:52.300Z,16.10
2022-09-12T05:37:55.741Z,17.03
2022-09-12T05:42:58.067Z,16.55
2022-09-12T05:48:00.478Z,15.70
2022-09-12T05:54:01.244Z,17.10
2022-09-12T05:59:04.710Z,16.24
2022-09-12T06:04:07.450Z,16.11
2022-09-12T06:09:10.455Z,17.49
2022-09-12T06:14:13.892Z,16.77
2022-09-12T06:19:17.413Z,15.89
2022-09-12T06:24:20.718Z,17.60
2022-09-12T06:29:23.029Z,16.81
2022-09-12T06:34:26.992Z,16.32
2022-09-12T06:39:29.422Z,18.09
2022-09-12T06:44:31.708Z,17.25
2022-09-12T06:49:34.174Z,16.64
2022-09-12T06:54:36.488Z,18.34
2022-09-12T06:59:38.840Z,18.24
2022-09-12T07:04:41.144Z,16.61
2022-09-12T07:09:44.510Z,17.90
2022-09-12T07:14:47.559Z,17.24
2022-09-12T07:19:49.855Z,17.88
2022-09-12T07:24:53.990Z,18.01
2022-09-12T07:29:56.292Z,16.97
2022-09-12T07:34:58.593Z,18.12
2022-09-12T07:40:01.229Z,17.05
2022-09-12T07:45:03.907Z,18.23
2022-09-12T07:50:06.854Z,17.60
2022-09-12T07:55:09.266Z,16.78
2022-09-12T08:00:11.802Z,17.72
2022-09-12T08:05:14.126Z,16.84
2022-09-12T08:10:16.432Z,17.34
2022-09-12T08:15:20.221Z,17.71
2022-09-12T08:20:25.344Z,16.84
2022-09-12T08:25:31.017Z,17.73
2022-09-12T08:30:33.523Z,18.63
2022-09-12T08:35:35.906Z,17.38
2022-09-12T08:40:41.178Z,17.12
2022-09-12T08:45:51.727Z,18.36
2022-09-12T08:50:54.156Z,17.36
2022-09-12T08:55:59.056Z,17.23
2022-09-12T09:01:04.588Z,18.50
2022-09-12T09:06:13.182Z,17.29
2022-09-12T09:11:17.504Z,16.90
2022-09-12T09:16:22.974Z,18.75
2022-09-12T09:21:28.652Z,18.44
2022-09-12T09:26:39.172Z,17.87
2022-09-12T09:31:42.330Z,17.45
2022-09-12T09:36:48.352Z,17.31
2022-09-12T09:41:50.832Z,17.54
2022-09-12T09:46:55.491Z,17.72
2022-09-12T09:52:00.568Z,17.64
2022-09-12T09:57:04.987Z,17.43
2022-09-12T10:02:10.742Z,17.40
2022-09-12T10:07:18.685Z,17.38
2022-09-12T10:12:26.137Z,17.42
2022-09-12T10:17:34.275Z,17.48
2022-09-12T10:22:38.465Z,17.67
2022-09-12T10:27:41.805Z,17.98
2022-09-12T10:32:46.445Z,18.21
2022-09-12T10:37:52.322Z,18.20
2022-09-12T10:42:56.263Z,18.17
2022-09-12T10:48:07.349Z,18.14
2022-09-12T10:53:13.397Z,18.13
2022-09-12T10:58:18.841Z,18.16
2022-09-12T11:03:24.711Z,18.17
2022-09-12T11:08:47.174Z,18.18
2022-09-12T11:13:55.589Z,18.25
2022-09-12T11:19:06.826Z,18.28
2022-09-12T11:24:12.117Z,17.98
2022-09-12T11:29:14.417Z,17.81
2022-09-12T11:34:20.104Z,17.92
2022-09-12T11:39:28.020Z,18.03
2022-09-12T11:44:33.317Z,18.13
2022-09-12T11:49:36.694Z,18.46
2022-09-12T11:54:42.329Z,18.39
2022-09-12T11:59:47.610Z,18.06
2022-09-12T12:04:52.952Z,17.94
2022-09-12T12:09:55.594Z,18.02
2022-09-12T12:14:58.993Z,18.14
2022-09-12T12:20:07.489Z,18.12
2022-09-12T12:25:12.119Z,17.94
2022-09-12T12:30:17.349Z,17.66
2022-09-12T12:35:23.435Z,17.34
2022-09-12T12:40:26.713Z,17.15
2022-09-12T12:45:29.228Z,17.06
2022-09-12T12:50:32.061Z,17.30
2022-09-12T12:55:37.735Z,17.99
2022-09-12T13:00:40.359Z,18.55
2022-09-12T13:05:46.552Z,18.45
2022-09-12T13:10:52.475Z,18.07
2022-09-12T13:15:54.948Z,17.70
2022-09-12T13:21:01.088Z,17.38
2022-09-12T13:26:04.999Z,17.18
2022-09-12T13:31:10.433Z,17.24
2022-09-12T13:36:15.700Z,17.52
2022-09-12T13:41:18.031Z,17.87
2022-09-12T13:46:30.386Z,18.45
2022-09-12T13:51:32.803Z,19.02
2022-09-12T13:56:46.404Z,19.27
2022-09-12T14:01:48.768Z,18.95
2022-09-12T14:06:52.029Z,18.61
2022-09-12T14:11:54.415Z,18.24
2022-09-12T14:16:57.778Z,18.02
2022-09-12T14:22:02.268Z,17.83
2022-09-12T14:27:04.801Z,17.55
2022-09-12T14:32:18.495Z,17.24
2022-09-12T14:37:20.872Z,17.14
2022-09-12T14:42:30.963Z,17.92
2022-09-12T14:47:38.704Z,18.54
2022-09-12T14:52:41.013Z,18.17
2022-09-12T14:57:44.450Z,17.92
2022-09-12T15:02:47.898Z,18.90
2022-09-12T15:07:50.221Z,20.17
2022-09-12T15:13:04.541Z,21.22
2022-09-12T15:18:07.387Z,21.88
2022-09-12T15:23:14.971Z,22.56
2022-09-12T15:28:19.899Z,23.12
2022-09-12T15:33:24.031Z,23.19
2022-09-12T15:38:26.942Z,22.74
2022-09-12T15:43:29.546Z,23.02
2022-09-12T15:48:32.014Z,23.52
2022-09-12T15:53:34.508Z,24.13
2022-09-12T15:58:46.027Z,24.29
2022-09-12T16:03:57.850Z,23.89
2022-09-12T16:09:01.024Z,22.78
2022-09-12T16:14:04.481Z,20.83
2022-09-12T16:19:07.227Z,19.15
2022-09-12T16:24:09.763Z,17.92
2022-09-12T16:29:12.782Z,17.02
2022-09-12T16:34:15.395Z,16.36
2022-09-12T16:39:17.717Z,15.85
2022-09-12T16:44:20.163Z,15.45
2022-09-12T16:49:22.464Z,16.65
2022-09-12T16:54:24.781Z,17.58
2022-09-12T16:59:27.073Z,16.30
2022-09-12T17:04:29.490Z,15.47
2022-09-12T17:09:31.840Z,15.48
2022-09-12T17:14:34.235Z,17.59
2022-09-12T17:19:36.565Z,17.24
2022-09-12T17:24:39.462Z,15.76
2022-09-12T17:29:41.848Z,14.98
2022-09-12T17:34:44.176Z,16.53
2022-09-12T17:39:46.547Z,17.59
2022-09-12T17:44:50.310Z,16.05
2022-09-12T17:49:58.629Z,14.91
2022-09-12T17:55:08.066Z,14.72
2022-09-12T18:00:10.795Z,16.75
2022-09-12T18:05:14.025Z,17.79
2022-09-12T18:10:16.363Z,16.63
2022-09-12T18:15:18.675Z,15.15
2022-09-12T18:20:21.031Z,16.22
2022-09-12T18:25:23.618Z,17.72
2022-09-12T18:30:25.930Z,17.38
2022-09-12T18:35:28.269Z,15.76
2022-09-12T18:40:30.584Z,16.53
2022-09-12T18:45:33.408Z,18.08
2022-09-12T18:50:35.760Z,17.62
2022-09-12T18:55:38.087Z,15.87
2022-09-12T19:00:41.260Z,15.78
2022-09-12T19:05:43.735Z,17.51
2022-09-12T19:10:53.707Z,17.73
2022-09-12T19:15:56.163Z,15.87
2022-09-12T19:20:58.557Z,16.13
2022-09-12T19:26:06.048Z,17.57
2022-09-12T19:31:09.944Z,16.93
2022-09-12T19:36:40.838Z,15.09
2022-09-12T19:41:36.263Z,15.49
2022-09-12T19:46:38.654Z,17.02
2022-09-12T19:51:41.473Z,17.33
2022-09-12T19:56:43.879Z,15.48
2022-09-12T20:01:46.691Z,14.92
2022-09-12T20:06:49.571Z,16.40
2022-09-12T20:11:51.900Z,17.12
2022-09-12T20:16:54.207Z,16.43
2022-09-12T20:21:56.538Z,14.85
2022-09-12T20:33:37.466Z,16.57
2022-09-12T20:38:40.101Z,14.60
2022-09-12T20:43:42.450Z,13.88
2022-09-12T20:55:11.996Z,16.52
2022-09-12T21:00:14.524Z,14.84
2022-09-12T21:05:17.334Z,13.53
2022-09-12T21:10:19.757Z,14.96
2022-09-12T21:15:22.394Z,15.90
2022-09-12T21:20:24.733Z,16.26
2022-09-12T21:32:06.008Z,14.29
2022-09-12T21:37:08.462Z,15.79
2022-09-12T21:42:10.810Z,16.43
2022-09-12T21:47:13.119Z,16.56
2022-09-12T21:52:15.439Z,14.81
2022-09-12T21:57:17.730Z,14.35
2022-09-12T22:02:20.182Z,15.97
2022-09-12T22:07:23.422Z,16.48
2022-09-12T22:12:28.698Z,14.71
2022-09-12T22:17:31.092Z,13.47
2022-09-12T22:22:37.876Z,14.94
2022-09-12T22:27:40.192Z,15.97
2022-09-12T22:32:42.668Z,14.95
2022-09-12T22:37:46.264Z,13.15
2022-09-12T22:42:50.907Z,14.25
2022-09-12T22:47:53.213Z,15.36
2022-09-12T22:52:55.684Z,15.60
2022-09-12T22:57:57.974Z,13.76
2022-09-12T23:03:01.507Z,12.08
2022-09-12T23:08:03.854Z,13.06
2022-09-12T23:13:06.824Z,14.54
2022-09-12T23:18:09.128Z,15.25
2022-09-12T23:23:11.495Z,15.16
2022-09-12T23:28:14.637Z,13.18
2022-09-12T23:33:17.097Z,12.97
2022-09-12T23:38:19.401Z,14.69
2022-09-12T23:43:21.740Z,15.10
2022-09-12T23:48:24.124Z,13.05
2022-09-12T23:53:26.679Z,12.91
2022-09-12T23:58:30.837Z,14.49
